Time;durP1;ratioP1;P1;durP2;ratioP2;P2;SDS_P1;SDS_P2;PMS_P1;PMS_P2;Temp;Humidity;BMP_temperature;BMP_pressure;BME280_temperature;BME280_humidity;BME280_pressure;Samples;Min_cycle;Max_cycle;Signal;HPM_P1;HPM_P2
2023/08/04 00:00:48;;;;;;;9.48;2.35;;;;;;;;;;6191767;23;20008;-92
2023/08/04 00:03:17;;;;;;;9.75;2.10;;;;;;;;;;6191150;23;20068;-93
2023/08/04 00:05:43;;;;;;;13.02;2.25;;;;;;;;;;6192072;23;20008;-89
2023/08/04 00:08:10;;;;;;;13.38;2.90;;;;;;;;;;6190776;23;20009;-89
2023/08/04 00:10:39;;;;;;;6.80;2.08;;;;;;;;;;6214513;23;20008;-88
2023/08/04 00:13:09;;;;;;;5.30;1.80;;;;;;;;;;6213416;23;20031;-95
2023/08/04 00:15:50;;;;;;;10.65;2.55;;;;;;;;;;6191345;22;20062;-93
2023/08/04 00:18:40;;;;;;;7.10;2.17;;;;;;;;;;6134832;23;20021;-94
2023/08/04 00:21:08;;;;;;;8.73;2.38;;;;;;;;;;6136816;23;20021;-95
2023/08/04 00:23:34;;;;;;;7.32;2.13;;;;;;;;;;6155735;23;20009;-91
2023/08/04 00:26:02;;;;;;;5.97;1.75;;;;;;;;;;6135654;23;20175;-91
2023/08/04 00:28:29;;;;;;;15.40;1.98;;;;;;;;;;6156093;23;20009;-94
2023/08/04 00:30:55;;;;;;;8.55;2.35;;;;;;;;;;6132537;23;20089;-93
2023/08/04 00:33:22;;;;;;;6.57;1.90;;;;;;;;;;6131403;23;20021;-93
2023/08/04 00:35:48;;;;;;;10.23;3.08;;;;;;;;;;6133107;23;20021;-95
2023/08/04 00:38:14;;;;;;;6.30;1.80;;;;;;;;;;6158268;23;20020;-93
2023/08/04 00:40:40;;;;;;;10.32;1.85;;;;;;;;;;6133262;23;20052;-91
2023/08/04 00:43:07;;;;;;;5.75;1.40;;;;;;;;;;6155318;23;20378;-90
2023/08/04 00:45:40;;;;;;;7.10;1.60;;;;;;;;;;6129203;23;20001;-92
2023/08/04 00:48:14;;;;;;;5.35;1.90;;;;;;;;;;6149994;23;20080;-93
2023/08/04 00:50:43;;;;;;;7.40;1.50;;;;;;;;;;6165835;23;20009;-95
2023/08/04 00:53:09;;;;;;;2.90;1.52;;;;;;;;;;6139243;23;20016;-94
2023/08/04 00:55:37;;;;;;;10.82;1.83;;;;;;;;;;6135101;23;20052;-93
2023/08/04 00:58:03;;;;;;;7.95;1.80;;;;;;;;;;6156899;23;20359;-93
2023/08/04 01:00:30;;;;;;;3.53;1.45;;;;;;;;;;6132404;23;20020;-93
2023/08/04 01:02:56;;;;;;;12.68;2.00;;;;;;;;;;6154863;23;20009;-93
2023/08/04 01:05:25;;;;;;;4.60;1.50;;;;;;;;;;6127502;23;20012;-93
2023/08/04 01:08:04;;;;;;;5.80;2.38;;;;;;;;;;6129628;23;20439;-93
2023/08/04 01:10:34;;;;;;;6.43;1.92;;;;;;;;;;6130823;23;20009;-93
2023/08/04 01:13:11;;;;;;;4.68;1.52;;;;;;;;;;6153106;23;20573;-93
2023/08/04 01:15:40;;;;;;;7.75;1.92;;;;;;;;;;6154710;23;20012;-93
2023/08/04 01:18:13;;;;;;;8.30;2.53;;;;;;;;;;6187117;23;20748;-94
2023/08/04 01:20:46;;;;;;;11.85;2.28;;;;;;;;;;6186060;23;20020;-94
2023/08/04 01:23:12;;;;;;;9.73;2.15;;;;;;;;;;6194178;23;20012;-95
2023/08/04 01:25:38;;;;;;;6.38;2.42;;;;;;;;;;6216090;23;20004;-93
2023/08/04 01:28:14;;;;;;;9.73;2.13;;;;;;;;;;6190187;23;20770;-94
2023/08/04 01:30:44;;;;;;;6.75;1.85;;;;;;;;;;6206011;23;20452;-93
2023/08/04 01:33:10;;;;;;;5.68;1.77;;;;;;;;;;6183519;23;20009;-92
2023/08/04 01:35:36;;;;;;;9.13;1.88;;;;;;;;;;6206360;23;20013;-92
2023/08/04 01:38:02;;;;;;;8.13;1.80;;;;;;;;;;6208225;23;20031;-93
2023/08/04 01:40:28;;;;;;;5.95;2.00;;;;;;;;;;6180706;23;20478;-94
2023/08/04 01:42:55;;;;;;;10.70;2.28;;;;;;;;;;6182258;23;20013;-96
2023/08/04 01:45:21;;;;;;;5.32;2.00;;;;;;;;;;6211879;23;20080;-95
2023/08/04 01:47:48;;;;;;;6.72;1.88;;;;;;;;;;6189301;23;20008;-94
2023/08/04 01:50:14;;;;;;;14.85;2.17;;;;;;;;;;6215362;23;20657;-94
2023/08/04 01:52:40;;;;;;;9.50;2.20;;;;;;;;;;6188641;23;20009;-93
2023/08/04 01:55:07;;;;;;;12.18;1.92;;;;;;;;;;6214396;23;20016;-95
2023/08/04 01:57:35;;;;;;;2.65;1.60;;;;;;;;;;6191540;23;20013;-93
2023/08/04 02:00:02;;;;;;;6.38;1.80;;;;;;;;;;6185890;23;20038;-93
2023/08/04 02:02:28;;;;;;;6.13;1.80;;;;;;;;;;6213645;23;20062;-93
2023/08/04 02:04:57;;;;;;;7.22;1.88;;;;;;;;;;6190920;23;20159;-94
2023/08/04 02:07:25;;;;;;;14.77;2.20;;;;;;;;;;6191662;23;20005;-96
2023/08/04 02:09:54;;;;;;;10.05;1.80;;;;;;;;;;6213382;23;20008;-93
2023/08/04 02:12:23;;;;;;;3.83;2.00;;;;;;;;;;6190712;23;20035;-93
2023/08/04 02:14:49;;;;;;;6.53;2.15;;;;;;;;;;6189022;23;20020;-94
2023/08/04 02:17:25;;;;;;;8.65;1.60;;;;;;;;;;6187402;23;20044;-94
2023/08/04 02:19:51;;;;;;;7.13;1.60;;;;;;;;;;6184851;23;20012;-92
2023/08/04 02:22:17;;;;;;;5.63;1.50;;;;;;;;;;6212010;23;20028;-91
2023/08/04 02:24:43;;;;;;;3.90;1.80;;;;;;;;;;6185950;23;20016;-93
2023/08/04 02:27:09;;;;;;;11.98;1.60;;;;;;;;;;6187725;23;20091;-94
2023/08/04 02:29:39;;;;;;;6.57;1.80;;;;;;;;;;6211171;23;20039;-93
2023/08/04 02:32:06;;;;;;;6.88;2.28;;;;;;;;;;6190915;23;20035;-94
2023/08/04 02:34:32;;;;;;;5.32;1.67;;;;;;;;;;6191106;23;20373;-89
2023/08/04 02:36:58;;;;;;;8.40;1.60;;;;;;;;;;6215322;23;20013;-88
2023/08/04 02:39:24;;;;;;;11.77;1.80;;;;;;;;;;6214380;23;20008;-91
2023/08/04 02:41:50;;;;;;;6.70;1.75;;;;;;;;;;6189563;23;20008;-90
2023/08/04 02:44:16;;;;;;;13.43;1.88;;;;;;;;;;6189349;23;20051;-90
2023/08/04 02:46:44;;;;;;;5.40;1.80;;;;;;;;;;6188307;23;20013;-90
2023/08/04 02:49:11;;;;;;;5.22;1.88;;;;;;;;;;6213216;23;20384;-91
2023/08/04 02:51:39;;;;;;;5.55;1.90;;;;;;;;;;6188893;23;20323;-92
2023/08/04 02:54:05;;;;;;;12.35;2.20;;;;;;;;;;6190590;23;20005;-93
2023/08/04 02:56:31;;;;;;;9.75;2.10;;;;;;;;;;6190183;23;20092;-91
2023/08/04 02:58:57;;;;;;;8.75;2.33;;;;;;;;;;6189211;23;20070;-92
2023/08/04 03:01:23;;;;;;;6.97;2.35;;;;;;;;;;6190056;23;20488;-92
2023/08/04 03:03:49;;;;;;;5.25;2.08;;;;;;;;;;6213613;23;19997;-92
2023/08/04 03:06:15;;;;;;;13.55;2.55;;;;;;;;;;6187330;23;20008;-91
2023/08/04 03:08:42;;;;;;;4.40;1.92;;;;;;;;;;6187251;23;20009;-92
2023/08/04 03:11:09;;;;;;;7.93;2.10;;;;;;;;;;6186922;23;20008;-92
2023/08/04 03:13:35;;;;;;;4.50;2.00;;;;;;;;;;6215647;23;20084;-91
2023/08/04 03:16:02;;;;;;;10.88;1.80;;;;;;;;;;6213957;23;20012;-93
2023/08/04 03:18:28;;;;;;;4.97;2.40;;;;;;;;;;6188383;23;20047;-92
2023/08/04 03:20:55;;;;;;;5.97;1.65;;;;;;;;;;6187266;23;20066;-92
2023/08/04 03:23:22;;;;;;;3.45;1.77;;;;;;;;;;6188466;23;20005;-90
2023/08/04 03:25:48;;;;;;;8.10;1.80;;;;;;;;;;6190242;23;20024;-92
2023/08/04 03:28:15;;;;;;;3.28;2.08;;;;;;;;;;6214977;23;20005;-92
2023/08/04 03:30:41;;;;;;;4.97;1.92;;;;;;;;;;6215187;23;20012;-91
2023/08/04 03:33:11;;;;;;;7.72;2.00;;;;;;;;;;6214060;23;20019;-93
2023/08/04 03:35:39;;;;;;;2.58;1.70;;;;;;;;;;6190426;23;20036;-92
2023/08/04 03:38:05;;;;;;;7.75;1.58;;;;;;;;;;6214731;23;20083;-92
2023/08/04 03:40:31;;;;;;;4.15;1.95;;;;;;;;;;6190462;23;20025;-92
2023/08/04 03:42:57;;;;;;;7.55;2.00;;;;;;;;;;6215728;23;20058;-91
2023/08/04 03:45:26;;;;;;;8.18;2.10;;;;;;;;;;6190464;23;20339;-92
2023/08/04 03:47:58;;;;;;;6.38;2.00;;;;;;;;;;6189955;23;20009;-93
2023/08/04 03:50:27;;;;;;;5.95;1.92;;;;;;;;;;6190247;23;20016;-92
2023/08/04 03:52:54;;;;;;;9.20;2.33;;;;;;;;;;6215994;23;20015;-92
2023/08/04 03:55:20;;;;;;;8.50;2.05;;;;;;;;;;6190554;23;20018;-91
2023/08/04 03:57:47;;;;;;;7.00;1.90;;;;;;;;;;6190400;23;20023;-91
2023/08/04 04:00:17;;;;;;;5.43;1.80;;;;;;;;;;6190347;23;20062;-89
2023/08/04 04:02:43;;;;;;;6.00;2.00;;;;;;;;;;6190569;23;20135;-92
2023/08/04 04:05:09;;;;;;;7.00;2.10;;;;;;;;;;6216093;23;20542;-92
2023/08/04 04:07:35;;;;;;;8.30;1.83;;;;;;;;;;6216012;23;20039;-91
2023/08/04 04:10:01;;;;;;;8.98;2.47;;;;;;;;;;6190345;23;20017;-92
2023/08/04 04:12:27;;;;;;;2.20;1.30;;;;;;;;;;6189235;23;20008;-93
2023/08/04 04:14:53;;;;;;;3.75;1.75;;;;;;;;;;6188145;23;20032;-92
2023/08/04 04:17:23;;;;;;;7.07;1.63;;;;;;;;;;6189564;23;20103;-91
2023/08/04 04:19:49;;;;;;;2.25;1.52;;;;;;;;;;6189115;23;20343;-92
2023/08/04 04:22:15;;;;;;;5.10;1.55;;;;;;;;;;6189154;23;20031;-92
2023/08/04 04:24:41;;;;;;;2.13;1.52;;;;;;;;;;6190081;23;20012;-92
2023/08/04 04:27:15;;;;;;;6.25;1.80;;;;;;;;;;6189265;23;20005;-91
2023/08/04 04:29:41;;;;;;;3.72;1.50;;;;;;;;;;6214026;23;20039;-90
2023/08/04 04:32:07;;;;;;;6.13;1.65;;;;;;;;;;6188303;23;20071;-92
2023/08/04 04:34:36;;;;;;;6.72;2.00;;;;;;;;;;6212751;23;20536;-93
2023/08/04 04:37:05;;;;;;;6.63;2.33;;;;;;;;;;6212962;23;20492;-90
2023/08/04 04:39:31;;;;;;;2.63;1.70;;;;;;;;;;6188274;23;20009;-91
2023/08/04 04:42:05;;;;;;;5.47;2.45;;;;;;;;;;6189175;23;20023;-91
2023/08/04 04:44:31;;;;;;;5.68;2.10;;;;;;;;;;6213439;23;20027;-90
2023/08/04 04:46:57;;;;;;;5.85;2.45;;;;;;;;;;6188212;23;20005;-92
2023/08/04 04:49:23;;;;;;;7.20;2.10;;;;;;;;;;6188355;23;20423;-90
2023/08/04 04:51:49;;;;;;;4.65;2.20;;;;;;;;;;6187817;23;20091;-91
2023/08/04 04:54:15;;;;;;;6.72;2.40;;;;;;;;;;6183542;23;20013;-92
2023/08/04 04:56:42;;;;;;;5.13;2.20;;;;;;;;;;6183680;23;20015;-93
2023/08/04 04:59:08;;;;;;;4.10;2.30;;;;;;;;;;6185458;23;20031;-91
2023/08/04 05:01:34;;;;;;;5.20;2.10;;;;;;;;;;6183527;23;20014;-93
2023/08/04 05:04:00;;;;;;;5.22;1.88;;;;;;;;;;6185315;23;20063;-92
2023/08/04 05:06:26;;;;;;;9.32;2.00;;;;;;;;;;6209156;23;20158;-93
2023/08/04 05:08:52;;;;;;;3.25;1.95;;;;;;;;;;6209802;23;20008;-92
2023/08/04 05:11:20;;;;;;;12.27;2.42;;;;;;;;;;6210826;23;20012;-92
2023/08/04 05:13:46;;;;;;;2.92;1.73;;;;;;;;;;6183388;23;20792;-94
2023/08/04 05:16:12;;;;;;;4.50;2.28;;;;;;;;;;6186676;23;20022;-92
2023/08/04 05:18:45;;;;;;;7.47;2.00;;;;;;;;;;6186985;23;20044;-93
2023/08/04 05:21:18;;;;;;;9.10;2.38;;;;;;;;;;6187158;23;20091;-93
2023/08/04 05:23:44;;;;;;;5.60;2.42;;;;;;;;;;6211675;23;20038;-91
2023/08/04 05:26:10;;;;;;;7.65;2.25;;;;;;;;;;6184668;23;20004;-92
2023/08/04 05:28:36;;;;;;;5.72;2.00;;;;;;;;;;6184089;23;20020;-93
2023/08/04 05:31:03;;;;;;;5.90;2.17;;;;;;;;;;6210354;23;20005;-92
2023/08/04 05:33:30;;;;;;;10.00;2.42;;;;;;;;;;6211112;23;20222;-94
2023/08/04 05:35:57;;;;;;;6.38;2.45;;;;;;;;;;6210048;23;20493;-92
2023/08/04 05:38:23;;;;;;;3.88;2.45;;;;;;;;;;6212963;23;20009;-93
2023/08/04 05:40:52;;;;;;;6.13;2.10;;;;;;;;;;6213117;23;20008;-93
2023/08/04 05:43:18;;;;;;;7.13;1.83;;;;;;;;;;6187357;23;20032;-91
2023/08/04 05:45:46;;;;;;;10.50;2.50;;;;;;;;;;6186373;23;20008;-90
2023/08/04 05:48:15;;;;;;;4.32;1.98;;;;;;;;;;6211988;23;20474;-91
2023/08/04 05:50:41;;;;;;;4.80;2.10;;;;;;;;;;6184367;23;20016;-92
2023/08/04 05:53:07;;;;;;;2.75;2.03;;;;;;;;;;6185149;23;20015;-92
2023/08/04 05:55:34;;;;;;;8.65;2.50;;;;;;;;;;6208725;23;20439;-92
2023/08/04 05:58:00;;;;;;;7.43;2.40;;;;;;;;;;6184323;23;20012;-91
2023/08/04 06:00:27;;;;;;;4.88;2.00;;;;;;;;;;6208563;23;20096;-92
2023/08/04 06:02:53;;;;;;;4.68;2.28;;;;;;;;;;6184356;23;20465;-91
2023/08/04 06:05:20;;;;;;;6.32;2.00;;;;;;;;;;6184569;23;20013;-90
2023/08/04 06:07:47;;;;;;;3.53;2.03;;;;;;;;;;6180313;23;20166;-91
2023/08/04 06:10:13;;;;;;;6.45;2.30;;;;;;;;;;6179459;23;20009;-87
2023/08/04 06:12:39;;;;;;;8.27;2.38;;;;;;;;;;6177124;23;20442;-90
2023/08/04 06:17:24;;;;;;;7.10;1.90;;;;;;;;;;4785030;27;8207049;-88
2023/08/04 06:19:50;;;;;;;7.47;2.00;;;;;;;;;;5016158;28;20068;-88
2023/08/04 06:22:17;;;;;;;5.65;2.42;;;;;;;;;;5020655;28;20033;-90
2023/08/04 06:24:44;;;;;;;2.75;1.60;;;;;;;;;;5022506;28;20057;-87
2023/08/04 06:27:10;;;;;;;3.53;2.03;;;;;;;;;;5031925;28;20029;-87
2023/08/04 06:29:36;;;;;;;1.63;1.42;;;;;;;;;;5013195;28;20033;-87
2023/08/04 06:32:02;;;;;;;4.28;1.77;;;;;;;;;;5011576;28;20040;-88
2023/08/04 06:34:29;;;;;;;3.42;1.75;;;;;;;;;;5007831;28;20115;-87
2023/08/04 06:36:55;;;;;;;3.78;2.20;;;;;;;;;;5032804;28;20093;-87
2023/08/04 06:39:22;;;;;;;5.50;1.70;;;;;;;;;;5023995;28;20642;-86
2023/08/04 06:41:51;;;;;;;2.97;1.48;;;;;;;;;;5043688;28;20040;-89
2023/08/04 06:44:17;;;;;;;6.45;2.10;;;;;;;;;;5011641;28;20033;-87
2023/08/04 06:46:46;;;;;;;5.88;1.80;;;;;;;;;;5020910;28;20056;-87
2023/08/04 06:49:12;;;;;;;4.63;2.03;;;;;;;;;;5020825;28;20079;-88
2023/08/04 06:51:38;;;;;;;5.10;2.05;;;;;;;;;;5004238;28;20090;-87
2023/08/04 06:54:04;;;;;;;7.68;2.45;;;;;;;;;;5006520;28;20045;-88
2023/08/04 06:56:30;;;;;;;3.88;1.88;;;;;;;;;;5016188;28;20052;-87
2023/08/04 06:58:57;;;;;;;5.65;1.92;;;;;;;;;;5027024;28;20068;-87
2023/08/04 07:01:23;;;;;;;3.92;1.95;;;;;;;;;;5028610;28;20479;-87
2023/08/04 07:03:49;;;;;;;9.57;2.00;;;;;;;;;;5029206;28;20469;-87
2023/08/04 07:06:16;;;;;;;13.20;2.22;;;;;;;;;;5012107;28;20483;-86
2023/08/04 07:08:42;;;;;;;7.32;2.00;;;;;;;;;;4993393;28;20061;-87
2023/08/04 07:11:17;;;;;;;4.85;1.92;;;;;;;;;;5013416;28;20037;-87
2023/08/04 07:13:44;;;;;;;2.67;1.85;;;;;;;;;;5024765;28;20388;-87
2023/08/04 07:16:10;;;;;;;6.07;2.03;;;;;;;;;;5025905;28;20451;-87
2023/08/04 07:18:37;;;;;;;4.45;1.85;;;;;;;;;;5020587;28;20099;-87
2023/08/04 07:21:04;;;;;;;7.40;2.20;;;;;;;;;;5003329;28;20508;-87
2023/08/04 07:23:30;;;;;;;8.23;2.15;;;;;;;;;;5014265;28;20022;-87
2023/08/04 07:25:57;;;;;;;10.20;2.10;;;;;;;;;;5010388;28;20033;-87
2023/08/04 07:28:23;;;;;;;4.80;2.17;;;;;;;;;;5005894;28;20036;-87
2023/08/04 07:30:49;;;;;;;10.63;1.95;;;;;;;;;;4990140;28;20033;-87
2023/08/04 07:33:15;;;;;;;7.28;1.92;;;;;;;;;;4994386;28;20065;-86
2023/08/04 07:35:41;;;;;;;11.27;2.33;;;;;;;;;;5026173;28;20036;-87
2023/08/04 07:38:07;;;;;;;8.05;2.55;;;;;;;;;;4994660;28;20029;-87
2023/08/04 07:40:37;;;;;;;6.75;2.55;;;;;;;;;;5009065;28;20163;-87
2023/08/04 07:43:05;;;;;;;6.28;2.75;;;;;;;;;;5008914;28;20037;-87
2023/08/04 07:45:31;;;;;;;11.88;2.40;;;;;;;;;;4992493;28;20045;-86
2023/08/04 07:47:57;;;;;;;9.95;2.25;;;;;;;;;;5010029;28;20041;-87
2023/08/04 07:50:30;;;;;;;6.63;2.03;;;;;;;;;;4990022;28;20117;-87
2023/08/04 07:52:56;;;;;;;6.97;2.00;;;;;;;;;;5036070;28;20025;-88
2023/08/04 07:55:22;;;;;;;6.70;1.98;;;;;;;;;;5017532;28;20056;-88
2023/08/04 07:57:52;;;;;;;8.48;1.88;;;;;;;;;;5025386;28;20032;-88
2023/08/04 08:00:26;;;;;;;5.78;1.55;;;;;;;;;;5014049;28;20735;-87
2023/08/04 08:02:52;;;;;;;5.53;1.92;;;;;;;;;;5002354;28;20063;-87
2023/08/04 08:05:19;;;;;;;6.35;2.55;;;;;;;;;;5006965;28;20049;-87
2023/08/04 08:07:51;;;;;;;5.95;1.92;;;;;;;;;;5001856;28;20037;-87
2023/08/04 08:10:18;;;;;;;10.02;2.20;;;;;;;;;;5018728;28;20034;-87
2023/08/04 08:12:44;;;;;;;15.60;2.85;;;;;;;;;;5034650;28;20033;-87
2023/08/04 08:15:20;;;;;;;9.07;2.90;;;;;;;;;;5014656;28;20037;-87
2023/08/04 08:17:46;;;;;;;7.32;2.10;;;;;;;;;;5025931;28;20037;-87
2023/08/04 08:20:13;;;;;;;7.25;2.63;;;;;;;;;;5000079;28;20084;-87
2023/08/04 08:22:40;;;;;;;5.68;2.50;;;;;;;;;;5018970;28;20036;-89
2023/08/04 08:25:07;;;;;;;6.05;2.20;;;;;;;;;;5002167;28;20026;-89
2023/08/04 08:27:34;;;;;;;8.80;2.45;;;;;;;;;;5014725;28;20735;-89
2023/08/04 08:30:01;;;;;;;4.40;2.20;;;;;;;;;;5012750;28;20132;-89
2023/08/04 08:32:29;;;;;;;4.82;2.42;;;;;;;;;;5003678;28;20087;-88
2023/08/04 08:34:56;;;;;;;6.10;2.55;;;;;;;;;;5034602;28;20037;-88
2023/08/04 08:37:25;;;;;;;10.68;2.67;;;;;;;;;;5005203;28;20097;-88
2023/08/04 08:39:51;;;;;;;5.72;2.53;;;;;;;;;;5003319;28;20022;-88
2023/08/04 08:42:19;;;;;;;5.10;2.90;;;;;;;;;;5031639;28;21202;-88
2023/08/04 08:44:45;;;;;;;4.72;2.30;;;;;;;;;;5001767;28;20037;-88
2023/08/04 08:47:12;;;;;;;7.32;2.40;;;;;;;;;;5009536;28;20029;-88
2023/08/04 08:49:41;;;;;;;8.25;2.35;;;;;;;;;;5012239;28;20029;-88
2023/08/04 08:52:10;;;;;;;12.38;3.00;;;;;;;;;;5011060;28;20034;-89
2023/08/04 08:54:37;;;;;;;8.43;3.17;;;;;;;;;;5025320;28;20040;-88
2023/08/04 08:57:04;;;;;;;11.65;2.97;;;;;;;;;;5028475;28;20033;-88
2023/08/04 08:59:33;;;;;;;14.65;2.65;;;;;;;;;;5029354;28;20340;-88
2023/08/04 09:02:02;;;;;;;10.75;3.03;;;;;;;;;;5011253;28;20025;-88
2023/08/04 09:04:33;;;;;;;7.40;2.50;;;;;;;;;;5004884;28;20358;-87
2023/08/04 09:06:59;;;;;;;9.55;2.72;;;;;;;;;;5024649;28;20480;-88
2023/08/04 09:09:26;;;;;;;9.15;2.00;;;;;;;;;;4995415;28;20056;-89
2023/08/04 09:11:55;;;;;;;4.90;1.85;;;;;;;;;;5024598;28;20040;-89
2023/08/04 09:14:21;;;;;;;10.07;1.90;;;;;;;;;;4993152;28;20033;-90
2023/08/04 09:16:49;;;;;;;2.75;1.60;;;;;;;;;;5019602;28;20046;-89
2023/08/04 09:19:15;;;;;;;7.88;1.75;;;;;;;;;;5003067;28;20453;-89
2023/08/04 09:21:41;;;;;;;4.50;1.67;;;;;;;;;;5011589;28;20029;-89
2023/08/04 09:24:11;;;;;;;3.90;1.45;;;;;;;;;;4995798;28;20531;-89
2023/08/04 09:26:47;;;;;;;3.90;2.17;;;;;;;;;;5009878;28;20156;-89
2023/08/04 09:29:16;;;;;;;5.80;1.40;;;;;;;;;;5006549;28;20041;-89
2023/08/04 09:31:43;;;;;;;5.07;1.40;;;;;;;;;;5004252;28;20041;-90
2023/08/04 09:34:10;;;;;;;5.40;1.58;;;;;;;;;;5001701;28;20133;-88
2023/08/04 09:36:41;;;;;;;10.45;2.08;;;;;;;;;;5002897;28;20028;-88
2023/08/04 09:39:09;;;;;;;7.30;2.30;;;;;;;;;;5002128;28;20354;-87
2023/08/04 09:41:38;;;;;;;7.93;2.55;;;;;;;;;;4983766;28;20030;-87
2023/08/04 09:44:06;;;;;;;9.50;2.33;;;;;;;;;;4997214;28;20037;-88
2023/08/04 09:46:32;;;;;;;8.27;2.83;;;;;;;;;;5003496;28;20032;-88
2023/08/04 09:48:59;;;;;;;10.50;2.25;;;;;;;;;;4984169;28;20508;-87
2023/08/04 09:51:25;;;;;;;8.38;2.22;;;;;;;;;;4983219;28;20037;-87
2023/08/04 09:53:54;;;;;;;8.80;2.70;;;;;;;;;;5001980;28;20033;-87
2023/08/04 09:56:21;;;;;;;6.00;2.00;;;;;;;;;;5004014;28;20600;-87
2023/08/04 09:58:47;;;;;;;10.80;1.98;;;;;;;;;;4996512;28;20034;-88
2023/08/04 10:01:15;;;;;;;6.28;2.13;;;;;;;;;;4992251;28;20113;-88
2023/08/04 10:03:44;;;;;;;6.80;2.15;;;;;;;;;;5016763;28;20708;-87
2023/08/04 10:06:10;;;;;;;6.03;1.48;;;;;;;;;;5018474;28;20036;-88
2023/08/04 10:08:39;;;;;;;8.65;2.03;;;;;;;;;;4983270;28;20040;-87
2023/08/04 10:11:06;;;;;;;6.75;1.60;;;;;;;;;;4999343;28;20072;-88
2023/08/04 10:13:46;;;;;;;6.18;1.58;;;;;;;;;;4997027;28;20041;-87
2023/08/04 10:16:19;;;;;;;4.40;1.20;;;;;;;;;;5010089;28;20053;-87
2023/08/04 10:18:47;;;;;;;6.72;2.22;;;;;;;;;;5011118;28;20481;-89
2023/08/04 10:21:14;;;;;;;9.70;2.30;;;;;;;;;;4993945;28;20029;-87
2023/08/04 10:23:40;;;;;;;8.75;1.58;;;;;;;;;;4999610;28;20095;-87
2023/08/04 10:26:10;;;;;;;7.82;2.60;;;;;;;;;;4996163;28;20040;-88
2023/08/04 10:28:56;;;;;;;2.50;1.65;;;;;;;;;;5021544;28;20041;-87
2023/08/04 10:31:22;;;;;;;3.15;1.38;;;;;;;;;;5001503;28;20608;-88
2023/08/04 10:34:07;;;;;;;5.63;1.60;;;;;;;;;;5000313;28;20489;-88
2023/08/04 10:36:54;;;;;;;4.07;1.70;;;;;;;;;;5001041;28;20102;-88
2023/08/04 10:39:26;;;;;;;5.63;1.85;;;;;;;;;;5016485;28;20030;-87
2023/08/04 10:41:52;;;;;;;2.30;1.50;;;;;;;;;;5005077;28;20068;-87
2023/08/04 10:44:18;;;;;;;3.75;1.02;;;;;;;;;;4993277;28;20464;-90
2023/08/04 10:46:44;;;;;;;4.75;0.95;;;;;;;;;;4990825;28;20080;-89
2023/08/04 10:49:10;;;;;;;4.28;1.50;;;;;;;;;;5011445;28;20068;-88
2023/08/04 10:51:39;;;;;;;1.98;1.45;;;;;;;;;;4987344;28;20504;-89
2023/08/04 10:54:15;;;;;;;3.10;1.13;;;;;;;;;;5008399;28;20029;-89
2023/08/04 10:56:41;;;;;;;;;;;;;;;;;;5004300;28;20041;-88
2023/08/04 10:59:08;;;;;;;5.22;1.80;;;;;;;;;;5007394;28;22017;-90
2023/08/04 11:05:05;;;;;;;6.00;1.25;;;;;;;;;;4954185;28;20042;-87
2023/08/04 11:07:41;;;;;;;2.05;1.30;;;;;;;;;;4939034;28;20039;-88
2023/08/04 11:10:08;;;;;;;7.32;1.90;;;;;;;;;;5011506;28;20066;-89
2023/08/04 11:12:36;;;;;;;3.30;1.60;;;;;;;;;;5036733;28;20178;-88
2023/08/04 11:15:02;;;;;;;1.73;1.35;;;;;;;;;;5021171;28;20036;-89
2023/08/04 11:18:00;;;;;;;3.72;1.63;;;;;;;;;;5016175;28;20045;-89
2023/08/04 11:20:40;;;;;;;4.13;1.23;;;;;;;;;;5022461;28;20032;-89
2023/08/04 11:23:29;;;;;;;6.20;1.60;;;;;;;;;;5035817;28;20477;-90
2023/08/04 11:26:02;;;;;;;6.53;1.88;;;;;;;;;;5027853;28;20098;-89
2023/08/04 11:28:29;;;;;;;4.25;1.60;;;;;;;;;;5012826;28;20478;-89
2023/08/04 11:31:06;;;;;;;5.30;2.03;;;;;;;;;;5013082;28;20041;-89
2023/08/04 11:33:33;;;;;;;4.10;1.60;;;;;;;;;;5014670;28;20496;-89
2023/08/04 11:36:03;;;;;;;5.70;1.42;;;;;;;;;;5025311;28;20060;-89
2023/08/04 11:38:30;;;;;;;4.03;1.17;;;;;;;;;;5007029;28;20043;-89
2023/08/04 11:41:03;;;;;;;4.82;1.88;;;;;;;;;;4997071;28;20030;-89
2023/08/04 11:43:33;;;;;;;3.70;1.38;;;;;;;;;;5004378;28;20097;-89
2023/08/04 11:46:06;;;;;;;3.40;1.30;;;;;;;;;;5003254;28;20970;-89
2023/08/04 11:48:45;;;;;;;4.40;1.40;;;;;;;;;;5003480;28;20026;-89
2023/08/04 11:51:12;;;;;;;5.82;1.83;;;;;;;;;;5002269;28;20099;-89
2023/08/04 11:53:44;;;;;;;4.95;1.08;;;;;;;;;;5001766;28;21420;-88
2023/08/04 11:56:11;;;;;;;3.55;1.38;;;;;;;;;;5001848;28;20507;-87
2023/08/04 11:58:39;;;;;;;6.57;1.40;;;;;;;;;;5002998;28;20666;-87
2023/08/04 12:01:25;;;;;;;3.40;1.58;;;;;;;;;;5005488;28;20517;-87
2023/08/04 12:03:51;;;;;;;3.88;1.50;;;;;;;;;;5004712;28;20025;-86
2023/08/04 12:06:19;;;;;;;4.32;1.23;;;;;;;;;;4983270;28;20034;-87
2023/08/04 12:08:52;;;;;;;3.42;1.45;;;;;;;;;;4987844;28;20229;-87
2023/08/04 12:11:19;;;;;;;3.85;1.75;;;;;;;;;;5009957;28;20485;-88
2023/08/04 12:13:45;;;;;;;4.47;1.35;;;;;;;;;;4997618;28;20107;-86
2023/08/04 12:16:13;;;;;;;4.93;1.40;;;;;;;;;;5012575;28;20516;-88
2023/08/04 12:18:42;;;;;;;4.38;1.58;;;;;;;;;;5010086;28;20030;-88
2023/08/04 12:21:12;;;;;;;4.28;1.55;;;;;;;;;;5013017;28;20454;-86
2023/08/04 12:23:38;;;;;;;5.20;1.45;;;;;;;;;;5012384;28;20241;-87
2023/08/04 12:26:05;;;;;;;4.35;1.70;;;;;;;;;;5004939;28;20037;-87
2023/08/04 12:29:01;;;;;;;;;;;;;;;;;;;;;
2023/08/04 12:31:59;;;;;;;6.03;1.40;;;;;;;;;;5010288;28;20036;-89
2023/08/04 12:34:25;;;;;;;5.63;1.65;;;;;;;;;;4998923;28;20044;-86
2023/08/04 12:36:52;;;;;;;1.67;1.02;;;;;;;;;;4998837;28;20118;-87
2023/08/04 12:39:18;;;;;;;2.90;1.35;;;;;;;;;;4983250;28;20492;-86
2023/08/04 12:41:44;;;;;;;2.60;1.10;;;;;;;;;;4980335;28;20232;-89
2023/08/04 12:44:15;;;;;;;2.83;1.20;;;;;;;;;;4980080;28;21042;-87
2023/08/04 12:46:44;;;;;;;4.82;1.58;;;;;;;;;;5014893;28;20120;-86
2023/08/04 12:49:11;;;;;;;2.63;1.30;;;;;;;;;;4999330;28;20042;-87
2023/08/04 12:51:37;;;;;;;2.28;1.50;;;;;;;;;;4992498;28;20088;-87
2023/08/04 12:54:03;;;;;;;2.53;1.48;;;;;;;;;;5011265;28;20037;-89
2023/08/04 12:56:29;;;;;;;5.78;1.23;;;;;;;;;;4991111;28;20505;-88
2023/08/04 12:58:55;;;;;;;2.75;1.15;;;;;;;;;;4979408;28;20748;-87
2023/08/04 13:01:21;;;;;;;5.20;1.73;;;;;;;;;;4979734;28;20021;-90
2023/08/04 13:03:53;;;;;;;6.00;1.23;;;;;;;;;;4999865;28;20041;-91
2023/08/04 13:06:19;;;;;;;4.32;1.17;;;;;;;;;;4983578;28;20053;-89
2023/08/04 13:08:46;;;;;;;4.38;1.42;;;;;;;;;;4976977;28;20044;-90
2023/08/04 13:11:12;;;;;;;2.50;1.40;;;;;;;;;;4982534;28;20651;-90
2023/08/04 13:13:38;;;;;;;7.68;1.80;;;;;;;;;;4998067;28;20323;-89
2023/08/04 13:16:07;;;;;;;3.40;1.42;;;;;;;;;;5004633;28;20254;-90
2023/08/04 13:18:33;;;;;;;5.18;1.42;;;;;;;;;;4992030;28;20065;-90
2023/08/04 13:21:03;;;;;;;5.10;1.65;;;;;;;;;;4991984;28;20026;-90
2023/08/04 13:23:31;;;;;;;2.85;1.83;;;;;;;;;;5006190;28;20597;-89
2023/08/04 13:26:02;;;;;;;3.40;1.20;;;;;;;;;;5009598;28;20080;-90
2023/08/04 13:28:28;;;;;;;8.48;1.63;;;;;;;;;;4987696;28;20149;-90
2023/08/04 13:30:54;;;;;;;2.00;1.30;;;;;;;;;;4981442;28;20041;-90
2023/08/04 13:33:20;;;;;;;2.13;1.25;;;;;;;;;;4988662;28;20115;-89
2023/08/04 13:35:46;;;;;;;4.95;1.40;;;;;;;;;;4990807;28;20125;-90
2023/08/04 13:38:13;;;;;;;3.47;1.52;;;;;;;;;;4971042;28;20030;-89
2023/08/04 13:40:45;;;;;;;5.80;1.85;;;;;;;;;;4981248;28;20061;-91
2023/08/04 13:43:13;;;;;;;6.20;1.58;;;;;;;;;;4994747;28;20030;-92
2023/08/04 13:45:40;;;;;;;5.93;1.45;;;;;;;;;;5007994;28;20057;-92
2023/08/04 13:48:09;;;;;;;3.38;1.80;;;;;;;;;;4978120;28;20571;-92
2023/08/04 13:50:44;;;;;;;5.45;1.63;;;;;;;;;;4992449;28;20077;-92
2023/08/04 13:53:10;;;;;;;6.93;1.60;;;;;;;;;;4988573;28;20040;-92
2023/08/04 13:55:37;;;;;;;7.75;3.70;;;;;;;;;;4988818;28;20034;-92
2023/08/04 13:58:03;;;;;;;4.95;1.60;;;;;;;;;;4985971;28;20096;-91
2023/08/04 14:00:30;;;;;;;3.97;1.73;;;;;;;;;;4983757;28;20076;-91
2023/08/04 14:02:56;;;;;;;5.25;1.42;;;;;;;;;;4993631;28;20034;-91
2023/08/04 14:05:22;;;;;;;3.92;1.50;;;;;;;;;;4979537;28;20041;-92
2023/08/04 14:07:49;;;;;;;2.30;1.50;;;;;;;;;;4990386;28;20037;-92
2023/08/04 14:10:15;;;;;;;7.38;3.42;;;;;;;;;;4996544;28;20033;-93
2023/08/04 14:12:41;;;;;;;4.10;1.45;;;;;;;;;;4978112;28;20046;-92
2023/08/04 14:15:07;;;;;;;2.55;1.35;;;;;;;;;;4974011;28;20065;-92
2023/08/04 14:17:37;;;;;;;4.47;1.35;;;;;;;;;;4979428;28;20141;-91
2023/08/04 14:20:05;;;;;;;5.35;1.58;;;;;;;;;;4991480;28;20116;-91
2023/08/04 14:22:31;;;;;;;1.17;1.08;;;;;;;;;;4988717;28;20060;-92
2023/08/04 14:24:58;;;;;;;2.97;1.27;;;;;;;;;;5007674;28;20709;-92
2023/08/04 14:27:24;;;;;;;1.92;1.25;;;;;;;;;;5011757;28;20025;-91
2023/08/04 14:29:50;;;;;;;2.50;1.20;;;;;;;;;;4996287;28;20045;-92
2023/08/04 14:32:16;;;;;;;2.33;1.45;;;;;;;;;;4997477;28;20042;-92
2023/08/04 14:34:42;;;;;;;2.80;1.40;;;;;;;;;;5000686;28;20030;-93
2023/08/04 14:37:09;;;;;;;6.05;1.33;;;;;;;;;;5016908;28;20441;-91
2023/08/04 14:39:35;;;;;;;2.85;1.70;;;;;;;;;;5001341;28;20064;-92
2023/08/04 14:42:01;;;;;;;2.78;1.30;;;;;;;;;;4997422;28;20524;-91
2023/08/04 14:44:27;;;;;;;5.53;1.40;;;;;;;;;;5012286;28;20473;-92
2023/08/04 14:46:53;;;;;;;2.97;1.40;;;;;;;;;;4995029;28;20101;-92
2023/08/04 14:49:19;;;;;;;3.72;1.20;;;;;;;;;;5001450;28;20397;-92
2023/08/04 14:51:45;;;;;;;4.25;2.10;;;;;;;;;;4999054;28;20042;-91
2023/08/04 14:54:14;;;;;;;4.40;1.30;;;;;;;;;;5020251;28;20026;-92